sensor_id;sensor_type;location;lat;lon;timestamp;P1;durP1;ratioP1;P2;durP2;ratioP2
7881;SDS011;3986;41.884;23.466;2022-12-07T00:01:36;39.43;;;32.90;;
7881;SDS011;3986;41.884;23.466;2022-12-07T00:04:06;42.03;;;37.57;;
7881;SDS011;3986;41.884;23.466;2022-12-07T00:06:35;48.70;;;39.70;;
7881;SDS011;3986;41.884;23.466;2022-12-07T00:09:03;45.77;;;35.73;;
7881;SDS011;3986;41.884;23.466;2022-12-07T00:11:30;35.90;;;30.60;;
7881;SDS011;3986;41.884;23.466;2022-12-07T00:13:58;37.50;;;29.87;;
7881;SDS011;3986;41.884;23.466;2022-12-07T00:16:28;47.90;;;40.83;;
7881;SDS011;3986;41.884;23.466;2022-12-07T00:18:56;42.83;;;36.53;;
7881;SDS011;3986;41.884;23.466;2022-12-07T00:21:26;37.97;;;32.30;;
7881;SDS011;3986;41.884;23.466;2022-12-07T00:23:54;43.50;;;36.53;;
7881;SDS011;3986;41.884;23.466;2022-12-07T00:26:22;40.23;;;34.30;;
7881;SDS011;3986;41.884;23.466;2022-12-07T00:28:51;36.37;;;30.50;;
7881;SDS011;3986;41.884;23.466;2022-12-07T00:31:20;37.60;;;32.23;;
7881;SDS011;3986;41.884;23.466;2022-12-07T00:33:48;44.43;;;36.80;;
7881;SDS011;3986;41.884;23.466;2022-12-07T00:36:16;44.67;;;36.93;;
7881;SDS011;3986;41.884;23.466;2022-12-07T00:38:46;53.93;;;46.07;;
7881;SDS011;3986;41.884;23.466;2022-12-07T00:41:14;50.13;;;42.07;;
7881;SDS011;3986;41.884;23.466;2022-12-07T00:43:42;43.23;;;38.50;;
7881;SDS011;3986;41.884;23.466;2022-12-07T00:46:10;46.00;;;39.07;;
7881;SDS011;3986;41.884;23.466;2022-12-07T00:48:37;47.17;;;41.07;;
7881;SDS011;3986;41.884;23.466;2022-12-07T00:51:04;40.27;;;35.97;;
7881;SDS011;3986;41.884;23.466;2022-12-07T00:53:33;40.90;;;36.27;;
7881;SDS011;3986;41.884;23.466;2022-12-07T00:56:05;47.83;;;42.63;;
7881;SDS011;3986;41.884;23.466;2022-12-07T00:58:33;50.20;;;42.73;;
7881;SDS011;3986;41.884;23.466;2022-12-07T01:00:59;45.60;;;40.70;;
7881;SDS011;3986;41.884;23.466;2022-12-07T01:03:27;50.73;;;43.03;;
7881;SDS011;3986;41.884;23.466;2022-12-07T01:05:55;47.33;;;39.63;;
7881;SDS011;3986;41.884;23.466;2022-12-07T01:08:22;46.60;;;39.83;;
7881;SDS011;3986;41.884;23.466;2022-12-07T01:10:56;47.37;;;37.87;;
7881;SDS011;3986;41.884;23.466;2022-12-07T01:13:25;43.23;;;32.70;;
7881;SDS011;3986;41.884;23.466;2022-12-07T01:15:55;34.17;;;28.47;;
7881;SDS011;3986;41.884;23.466;2022-12-07T01:18:23;34.30;;;26.20;;
7881;SDS011;3986;41.884;23.466;2022-12-07T01:20:56;30.60;;;25.87;;
7881;SDS011;3986;41.884;23.466;2022-12-07T01:23:24;28.13;;;24.17;;
7881;SDS011;3986;41.884;23.466;2022-12-07T01:25:53;30.77;;;25.60;;
7881;SDS011;3986;41.884;23.466;2022-12-07T01:28:21;33.87;;;26.87;;
7881;SDS011;3986;41.884;23.466;2022-12-07T01:30:55;36.20;;;28.27;;
7881;SDS011;3986;41.884;23.466;2022-12-07T01:33:26;31.97;;;27.23;;
7881;SDS011;3986;41.884;23.466;2022-12-07T01:35:54;31.77;;;28.13;;
7881;SDS011;3986;41.884;23.466;2022-12-07T01:38:26;28.97;;;25.20;;
7881;SDS011;3986;41.884;23.466;2022-12-07T01:40:53;27.80;;;24.13;;
7881;SDS011;3986;41.884;23.466;2022-12-07T01:43:20;28.43;;;22.63;;
7881;SDS011;3986;41.884;23.466;2022-12-07T01:45:49;24.27;;;21.47;;
7881;SDS011;3986;41.884;23.466;2022-12-07T01:48:18;24.53;;;20.73;;
7881;SDS011;3986;41.884;23.466;2022-12-07T01:50:48;21.47;;;19.17;;
7881;SDS011;3986;41.884;23.466;2022-12-07T01:53:18;23.37;;;19.27;;
7881;SDS011;3986;41.884;23.466;2022-12-07T01:55:47;21.00;;;18.17;;
7881;SDS011;3986;41.884;23.466;2022-12-07T01:58:18;22.30;;;19.90;;
7881;SDS011;3986;41.884;23.466;2022-12-07T02:00:46;21.47;;;19.03;;
7881;SDS011;3986;41.884;23.466;2022-12-07T02:03:13;22.80;;;19.70;;
7881;SDS011;3986;41.884;23.466;2022-12-07T02:05:45;21.77;;;19.07;;
7881;SDS011;3986;41.884;23.466;2022-12-07T02:08:13;17.90;;;15.83;;
7881;SDS011;3986;41.884;23.466;2022-12-07T02:10:40;16.43;;;14.73;;
7881;SDS011;3986;41.884;23.466;2022-12-07T02:13:08;17.53;;;15.63;;
7881;SDS011;3986;41.884;23.466;2022-12-07T02:15:49;18.17;;;15.27;;
7881;SDS011;3986;41.884;23.466;2022-12-07T02:18:31;15.77;;;13.70;;
7881;SDS011;3986;41.884;23.466;2022-12-07T02:21:11;15.00;;;13.47;;
7881;SDS011;3986;41.884;23.466;2022-12-07T02:27:09;23.13;;;19.63;;
7881;SDS011;3986;41.884;23.466;2022-12-07T02:29:49;28.93;;;24.90;;
7881;SDS011;3986;41.884;23.466;2022-12-07T02:32:24;25.93;;;22.27;;
7881;SDS011;3986;41.884;23.466;2022-12-07T02:34:55;27.00;;;22.60;;
7881;SDS011;3986;41.884;23.466;2022-12-07T02:37:33;26.57;;;23.40;;
7881;SDS011;3986;41.884;23.466;2022-12-07T02:40:04;25.13;;;21.70;;
7881;SDS011;3986;41.884;23.466;2022-12-07T02:42:38;24.73;;;21.43;;
7881;SDS011;3986;41.884;23.466;2022-12-07T02:45:10;25.87;;;22.70;;
7881;SDS011;3986;41.884;23.466;2022-12-07T02:47:40;22.53;;;19.43;;
7881;SDS011;3986;41.884;23.466;2022-12-07T02:50:08;20.53;;;17.73;;
7881;SDS011;3986;41.884;23.466;2022-12-07T02:52:36;21.87;;;18.77;;
7881;SDS011;3986;41.884;23.466;2022-12-07T02:55:03;22.07;;;19.13;;
7881;SDS011;3986;41.884;23.466;2022-12-07T02:57:41;23.90;;;21.27;;
7881;SDS011;3986;41.884;23.466;2022-12-07T03:00:26;20.03;;;17.93;;
7881;SDS011;3986;41.884;23.466;2022-12-07T03:02:54;15.80;;;13.67;;
7881;SDS011;3986;41.884;23.466;2022-12-07T03:08:27;15.40;;;13.80;;
7881;SDS011;3986;41.884;23.466;2022-12-07T03:11:00;16.03;;;14.33;;
7881;SDS011;3986;41.884;23.466;2022-12-07T03:13:32;13.80;;;12.47;;
7881;SDS011;3986;41.884;23.466;2022-12-07T03:16:07;13.87;;;11.90;;
7881;SDS011;3986;41.884;23.466;2022-12-07T03:18:43;18.73;;;16.73;;
7881;SDS011;3986;41.884;23.466;2022-12-07T03:21:17;20.33;;;18.03;;
7881;SDS011;3986;41.884;23.466;2022-12-07T03:23:48;18.23;;;15.73;;
7881;SDS011;3986;41.884;23.466;2022-12-07T03:26:18;18.27;;;16.03;;
7881;SDS011;3986;41.884;23.466;2022-12-07T03:28:49;21.30;;;15.90;;
7881;SDS011;3986;41.884;23.466;2022-12-07T03:31:21;17.97;;;15.90;;
7881;SDS011;3986;41.884;23.466;2022-12-07T03:33:53;18.23;;;16.33;;
7881;SDS011;3986;41.884;23.466;2022-12-07T03:36:25;17.33;;;15.53;;
7881;SDS011;3986;41.884;23.466;2022-12-07T03:38:57;18.13;;;16.13;;
7881;SDS011;3986;41.884;23.466;2022-12-07T03:41:31;18.77;;;16.77;;
7881;SDS011;3986;41.884;23.466;2022-12-07T03:44:00;19.47;;;17.43;;
7881;SDS011;3986;41.884;23.466;2022-12-07T03:46:29;20.27;;;17.97;;
7881;SDS011;3986;41.884;23.466;2022-12-07T03:49:04;17.27;;;15.47;;
7881;SDS011;3986;41.884;23.466;2022-12-07T03:51:39;16.00;;;14.40;;
7881;SDS011;3986;41.884;23.466;2022-12-07T03:54:11;16.30;;;14.70;;
7881;SDS011;3986;41.884;23.466;2022-12-07T03:56:42;14.57;;;13.17;;
7881;SDS011;3986;41.884;23.466;2022-12-07T03:59:11;17.53;;;13.80;;
7881;SDS011;3986;41.884;23.466;2022-12-07T04:01:42;17.50;;;15.07;;
7881;SDS011;3986;41.884;23.466;2022-12-07T04:04:09;21.07;;;15.70;;
7881;SDS011;3986;41.884;23.466;2022-12-07T04:06:36;18.30;;;15.83;;
7881;SDS011;3986;41.884;23.466;2022-12-07T04:09:03;19.03;;;17.07;;
7881;SDS011;3986;41.884;23.466;2022-12-07T04:11:29;18.47;;;16.57;;
7881;SDS011;3986;41.884;23.466;2022-12-07T04:13:56;18.70;;;16.80;;
7881;SDS011;3986;41.884;23.466;2022-12-07T04:16:42;19.37;;;17.47;;
7881;SDS011;3986;41.884;23.466;2022-12-07T04:19:08;19.90;;;17.93;;
7881;SDS011;3986;41.884;23.466;2022-12-07T04:21:35;22.80;;;20.50;;
7881;SDS011;3986;41.884;23.466;2022-12-07T04:24:02;22.40;;;20.10;;
7881;SDS011;3986;41.884;23.466;2022-12-07T04:26:29;20.33;;;18.10;;
7881;SDS011;3986;41.884;23.466;2022-12-07T04:28:56;23.33;;;20.93;;
7881;SDS011;3986;41.884;23.466;2022-12-07T04:31:23;22.83;;;20.40;;
7881;SDS011;3986;41.884;23.466;2022-12-07T04:33:51;26.60;;;24.00;;
7881;SDS011;3986;41.884;23.466;2022-12-07T04:36:18;30.90;;;27.60;;
7881;SDS011;3986;41.884;23.466;2022-12-07T04:38:45;37.10;;;33.33;;
7881;SDS011;3986;41.884;23.466;2022-12-07T04:41:12;36.47;;;32.53;;
7881;SDS011;3986;41.884;23.466;2022-12-07T04:43:39;39.80;;;35.53;;
7881;SDS011;3986;41.884;23.466;2022-12-07T04:46:06;36.33;;;32.40;;
7881;SDS011;3986;41.884;23.466;2022-12-07T04:48:33;40.40;;;36.07;;
7881;SDS011;3986;41.884;23.466;2022-12-07T04:51:01;36.83;;;32.27;;
7881;SDS011;3986;41.884;23.466;2022-12-07T04:53:29;39.67;;;35.20;;
7881;SDS011;3986;41.884;23.466;2022-12-07T04:55:56;43.10;;;38.53;;
7881;SDS011;3986;41.884;23.466;2022-12-07T04:58:23;44.23;;;39.43;;
7881;SDS011;3986;41.884;23.466;2022-12-07T05:00:50;48.77;;;43.43;;
7881;SDS011;3986;41.884;23.466;2022-12-07T05:03:20;41.23;;;36.83;;
7881;SDS011;3986;41.884;23.466;2022-12-07T05:05:47;37.93;;;34.07;;
7881;SDS011;3986;41.884;23.466;2022-12-07T05:08:15;41.87;;;36.23;;
7881;SDS011;3986;41.884;23.466;2022-12-07T05:10:42;38.93;;;34.33;;
7881;SDS011;3986;41.884;23.466;2022-12-07T05:13:08;44.57;;;39.63;;
7881;SDS011;3986;41.884;23.466;2022-12-07T05:15:35;39.47;;;34.90;;
7881;SDS011;3986;41.884;23.466;2022-12-07T05:18:02;39.77;;;35.57;;
7881;SDS011;3986;41.884;23.466;2022-12-07T05:20:29;40.77;;;34.90;;
7881;SDS011;3986;41.884;23.466;2022-12-07T05:22:56;39.00;;;34.70;;
7881;SDS011;3986;41.884;23.466;2022-12-07T05:25:24;52.30;;;47.00;;
7881;SDS011;3986;41.884;23.466;2022-12-07T05:27:51;53.73;;;48.13;;
7881;SDS011;3986;41.884;23.466;2022-12-07T05:30:18;56.43;;;50.30;;
7881;SDS011;3986;41.884;23.466;2022-12-07T05:32:45;53.77;;;47.97;;
7881;SDS011;3986;41.884;23.466;2022-12-07T05:35:12;30.57;;;27.47;;
7881;SDS011;3986;41.884;23.466;2022-12-07T05:37:38;24.90;;;22.30;;
7881;SDS011;3986;41.884;23.466;2022-12-07T05:40:06;29.37;;;26.40;;
7881;SDS011;3986;41.884;23.466;2022-12-07T05:42:35;35.70;;;31.87;;
7881;SDS011;3986;41.884;23.466;2022-12-07T05:45:02;51.63;;;46.20;;
7881;SDS011;3986;41.884;23.466;2022-12-07T05:47:30;51.90;;;45.20;;
7881;SDS011;3986;41.884;23.466;2022-12-07T05:49:57;46.47;;;41.37;;
7881;SDS011;3986;41.884;23.466;2022-12-07T05:52:23;42.70;;;38.13;;
7881;SDS011;3986;41.884;23.466;2022-12-07T05:54:51;47.00;;;42.13;;
7881;SDS011;3986;41.884;23.466;2022-12-07T05:57:17;42.30;;;37.20;;
7881;SDS011;3986;41.884;23.466;2022-12-07T05:59:46;46.40;;;41.63;;
7881;SDS011;3986;41.884;23.466;2022-12-07T06:02:13;52.47;;;47.27;;
7881;SDS011;3986;41.884;23.466;2022-12-07T06:06:29;55.30;;;44.93;;
7881;SDS011;3986;41.884;23.466;2022-12-07T06:08:55;67.07;;;50.10;;
7881;SDS011;3986;41.884;23.466;2022-12-07T06:11:22;76.10;;;50.93;;
7881;SDS011;3986;41.884;23.466;2022-12-07T06:14:06;57.30;;;51.17;;
7881;SDS011;3986;41.884;23.466;2022-12-07T06:16:33;62.00;;;51.47;;
7881;SDS011;3986;41.884;23.466;2022-12-07T06:19:00;79.43;;;60.07;;
7881;SDS011;3986;41.884;23.466;2022-12-07T06:21:26;74.67;;;58.03;;
7881;SDS011;3986;41.884;23.466;2022-12-07T06:23:55;75.83;;;54.93;;
7881;SDS011;3986;41.884;23.466;2022-12-07T06:26:22;81.47;;;55.80;;
7881;SDS011;3986;41.884;23.466;2022-12-07T06:28:48;73.87;;;56.37;;
7881;SDS011;3986;41.884;23.466;2022-12-07T06:31:15;71.27;;;57.97;;
7881;SDS011;3986;41.884;23.466;2022-12-07T06:33:42;66.47;;;56.13;;
7881;SDS011;3986;41.884;23.466;2022-12-07T06:36:09;71.87;;;62.07;;
7881;SDS011;3986;41.884;23.466;2022-12-07T06:38:38;69.27;;;59.43;;
7881;SDS011;3986;41.884;23.466;2022-12-07T06:41:04;69.40;;;60.30;;
7881;SDS011;3986;41.884;23.466;2022-12-07T06:43:31;112.43;;;98.60;;
7881;SDS011;3986;41.884;23.466;2022-12-07T06:45:58;132.60;;;89.70;;
7881;SDS011;3986;41.884;23.466;2022-12-07T06:48:25;119.47;;;87.70;;
7881;SDS011;3986;41.884;23.466;2022-12-07T06:50:52;108.83;;;85.97;;
7881;SDS011;3986;41.884;23.466;2022-12-07T06:53:19;132.83;;;100.30;;
7881;SDS011;3986;41.884;23.466;2022-12-07T06:55:47;109.13;;;94.10;;
7881;SDS011;3986;41.884;23.466;2022-12-07T06:58:13;139.70;;;122.63;;
7881;SDS011;3986;41.884;23.466;2022-12-07T07:00:40;137.83;;;122.23;;
7881;SDS011;3986;41.884;23.466;2022-12-07T07:03:07;131.67;;;116.70;;
7881;SDS011;3986;41.884;23.466;2022-12-07T07:05:34;123.67;;;110.23;;
7881;SDS011;3986;41.884;23.466;2022-12-07T07:08:01;139.07;;;120.40;;
7881;SDS011;3986;41.884;23.466;2022-12-07T07:10:28;148.17;;;120.77;;
7881;SDS011;3986;41.884;23.466;2022-12-07T07:12:56;131.73;;;110.73;;
7881;SDS011;3986;41.884;23.466;2022-12-07T07:15:23;156.03;;;111.50;;
7881;SDS011;3986;41.884;23.466;2022-12-07T07:17:49;130.07;;;115.47;;
7881;SDS011;3986;41.884;23.466;2022-12-07T07:20:16;125.27;;;101.93;;
7881;SDS011;3986;41.884;23.466;2022-12-07T07:22:43;118.20;;;96.70;;
7881;SDS011;3986;41.884;23.466;2022-12-07T07:25:10;113.60;;;101.17;;
7881;SDS011;3986;41.884;23.466;2022-12-07T07:27:37;123.17;;;105.80;;
7881;SDS011;3986;41.884;23.466;2022-12-07T07:30:06;123.37;;;104.90;;
7881;SDS011;3986;41.884;23.466;2022-12-07T07:32:33;172.27;;;130.27;;
7881;SDS011;3986;41.884;23.466;2022-12-07T07:35:00;174.40;;;138.43;;
7881;SDS011;3986;41.884;23.466;2022-12-07T07:37:27;176.97;;;151.67;;
7881;SDS011;3986;41.884;23.466;2022-12-07T07:39:54;177.10;;;144.00;;
7881;SDS011;3986;41.884;23.466;2022-12-07T07:42:21;193.33;;;137.80;;
7881;SDS011;3986;41.884;23.466;2022-12-07T07:44:48;152.77;;;133.57;;
7881;SDS011;3986;41.884;23.466;2022-12-07T07:47:16;140.53;;;121.27;;
7881;SDS011;3986;41.884;23.466;2022-12-07T07:49:43;150.27;;;122.47;;
7881;SDS011;3986;41.884;23.466;2022-12-07T07:52:10;148.90;;;132.67;;
7881;SDS011;3986;41.884;23.466;2022-12-07T07:54:36;132.37;;;104.77;;
7881;SDS011;3986;41.884;23.466;2022-12-07T07:57:03;135.40;;;113.80;;
7881;SDS011;3986;41.884;23.466;2022-12-07T07:59:30;146.60;;;119.23;;
7881;SDS011;3986;41.884;23.466;2022-12-07T08:01:57;160.77;;;119.23;;
7881;SDS011;3986;41.884;23.466;2022-12-07T08:04:25;146.90;;;117.43;;
7881;SDS011;3986;41.884;23.466;2022-12-07T08:06:52;174.70;;;122.17;;
7881;SDS011;3986;41.884;23.466;2022-12-07T08:09:19;134.47;;;112.90;;
7881;SDS011;3986;41.884;23.466;2022-12-07T08:11:45;178.90;;;119.03;;
7881;SDS011;3986;41.884;23.466;2022-12-07T08:14:12;145.03;;;123.23;;
7881;SDS011;3986;41.884;23.466;2022-12-07T08:16:39;153.63;;;134.13;;
7881;SDS011;3986;41.884;23.466;2022-12-07T08:19:06;156.40;;;129.83;;
7881;SDS011;3986;41.884;23.466;2022-12-07T08:21:34;167.33;;;134.00;;
7881;SDS011;3986;41.884;23.466;2022-12-07T08:24:01;132.30;;;110.10;;
7881;SDS011;3986;41.884;23.466;2022-12-07T08:26:28;131.80;;;98.73;;
7881;SDS011;3986;41.884;23.466;2022-12-07T08:28:54;130.77;;;100.27;;
7881;SDS011;3986;41.884;23.466;2022-12-07T08:31:21;134.20;;;102.57;;
7881;SDS011;3986;41.884;23.466;2022-12-07T08:33:48;114.53;;;98.90;;
7881;SDS011;3986;41.884;23.466;2022-12-07T08:36:15;126.00;;;111.90;;
7881;SDS011;3986;41.884;23.466;2022-12-07T08:38:44;107.67;;;94.10;;
7881;SDS011;3986;41.884;23.466;2022-12-07T08:41:11;118.83;;;100.93;;
7881;SDS011;3986;41.884;23.466;2022-12-07T08:43:38;113.87;;;100.23;;
7881;SDS011;3986;41.884;23.466;2022-12-07T08:46:06;127.17;;;110.83;;
7881;SDS011;3986;41.884;23.466;2022-12-07T08:48:36;115.60;;;97.07;;
7881;SDS011;3986;41.884;23.466;2022-12-07T08:51:07;95.67;;;79.67;;
7881;SDS011;3986;41.884;23.466;2022-12-07T08:53:34;113.77;;;83.50;;
7881;SDS011;3986;41.884;23.466;2022-12-07T08:56:03;97.80;;;76.33;;
7881;SDS011;3986;41.884;23.466;2022-12-07T08:58:32;90.27;;;63.53;;
7881;SDS011;3986;41.884;23.466;2022-12-07T09:00:59;91.23;;;67.07;;
7881;SDS011;3986;41.884;23.466;2022-12-07T09:03:26;68.87;;;61.33;;
7881;SDS011;3986;41.884;23.466;2022-12-07T09:05:53;86.87;;;61.03;;
7881;SDS011;3986;41.884;23.466;2022-12-07T09:08:20;91.67;;;71.87;;
7881;SDS011;3986;41.884;23.466;2022-12-07T09:10:49;77.97;;;67.70;;
7881;SDS011;3986;41.884;23.466;2022-12-07T09:13:17;92.50;;;69.60;;
7881;SDS011;3986;41.884;23.466;2022-12-07T09:15:44;68.77;;;59.43;;
7881;SDS011;3986;41.884;23.466;2022-12-07T09:18:11;55.80;;;49.50;;
7881;SDS011;3986;41.884;23.466;2022-12-07T09:20:38;71.03;;;56.33;;
7881;SDS011;3986;41.884;23.466;2022-12-07T09:23:05;91.87;;;64.43;;
7881;SDS011;3986;41.884;23.466;2022-12-07T09:25:32;71.47;;;54.57;;
7881;SDS011;3986;41.884;23.466;2022-12-07T09:27:59;70.70;;;56.47;;
7881;SDS011;3986;41.884;23.466;2022-12-07T09:30:27;85.00;;;53.60;;
7881;SDS011;3986;41.884;23.466;2022-12-07T09:32:55;89.57;;;60.93;;
7881;SDS011;3986;41.884;23.466;2022-12-07T09:35:23;78.60;;;50.60;;
7881;SDS011;3986;41.884;23.466;2022-12-07T09:37:51;65.03;;;46.17;;
7881;SDS011;3986;41.884;23.466;2022-12-07T09:40:20;51.63;;;41.73;;
7881;SDS011;3986;41.884;23.466;2022-12-07T09:42:49;67.50;;;38.43;;
7881;SDS011;3986;41.884;23.466;2022-12-07T09:45:19;62.13;;;33.70;;
7881;SDS011;3986;41.884;23.466;2022-12-07T09:47:50;52.47;;;32.00;;
7881;SDS011;3986;41.884;23.466;2022-12-07T09:50:19;59.73;;;35.70;;
7881;SDS011;3986;41.884;23.466;2022-12-07T09:52:47;63.30;;;35.03;;
7881;SDS011;3986;41.884;23.466;2022-12-07T09:55:16;60.63;;;42.63;;
7881;SDS011;3986;41.884;23.466;2022-12-07T09:57:48;77.07;;;41.10;;
7881;SDS011;3986;41.884;23.466;2022-12-07T10:00:17;60.23;;;38.90;;
7881;SDS011;3986;41.884;23.466;2022-12-07T10:02:47;72.23;;;36.60;;
7881;SDS011;3986;41.884;23.466;2022-12-07T10:05:18;62.43;;;32.63;;
7881;SDS011;3986;41.884;23.466;2022-12-07T10:07:48;67.00;;;32.13;;
7881;SDS011;3986;41.884;23.466;2022-12-07T10:10:16;60.37;;;35.43;;
7881;SDS011;3986;41.884;23.466;2022-12-07T10:12:54;93.60;;;39.17;;
7881;SDS011;3986;41.884;23.466;2022-12-07T10:15:22;68.97;;;33.70;;
7881;SDS011;3986;41.884;23.466;2022-12-07T10:17:50;62.70;;;32.97;;
7881;SDS011;3986;41.884;23.466;2022-12-07T10:20:20;48.10;;;29.43;;
7881;SDS011;3986;41.884;23.466;2022-12-07T10:22:56;58.73;;;28.93;;
7881;SDS011;3986;41.884;23.466;2022-12-07T10:25:27;49.70;;;29.97;;
7881;SDS011;3986;41.884;23.466;2022-12-07T10:27:57;58.73;;;22.50;;
7881;SDS011;3986;41.884;23.466;2022-12-07T10:30:29;49.30;;;27.67;;
7881;SDS011;3986;41.884;23.466;2022-12-07T10:32:57;57.93;;;25.87;;
7881;SDS011;3986;41.884;23.466;2022-12-07T10:35:27;66.27;;;27.23;;
7881;SDS011;3986;41.884;23.466;2022-12-07T10:37:55;45.03;;;26.60;;
7881;SDS011;3986;41.884;23.466;2022-12-07T10:40:28;69.60;;;28.67;;
7881;SDS011;3986;41.884;23.466;2022-12-07T10:43:02;41.97;;;21.73;;
7881;SDS011;3986;41.884;23.466;2022-12-07T10:45:30;64.20;;;25.03;;
7881;SDS011;3986;41.884;23.466;2022-12-07T10:47:59;48.97;;;25.53;;
7881;SDS011;3986;41.884;23.466;2022-12-07T10:50:41;59.97;;;32.73;;
7881;SDS011;3986;41.884;23.466;2022-12-07T10:53:26;72.53;;;40.07;;
7881;SDS011;3986;41.884;23.466;2022-12-07T10:56:07;59.67;;;41.43;;
7881;SDS011;3986;41.884;23.466;2022-12-07T10:58:49;89.27;;;39.57;;
7881;SDS011;3986;41.884;23.466;2022-12-07T11:01:25;54.77;;;39.77;;
7881;SDS011;3986;41.884;23.466;2022-12-07T11:04:11;64.30;;;33.40;;
7881;SDS011;3986;41.884;23.466;2022-12-07T11:06:47;90.20;;;38.50;;
7881;SDS011;3986;41.884;23.466;2022-12-07T11:09:25;87.07;;;36.03;;
7881;SDS011;3986;41.884;23.466;2022-12-07T11:12:07;74.50;;;36.33;;
7881;SDS011;3986;41.884;23.466;2022-12-07T11:14:40;122.80;;;39.23;;
7881;SDS011;3986;41.884;23.466;2022-12-07T11:17:19;92.55;;;39.08;;
7881;SDS011;3986;41.884;23.466;2022-12-07T11:19:53;62.50;;;34.40;;
7881;SDS011;3986;41.884;23.466;2022-12-07T11:22:33;43.60;;;28.63;;
7881;SDS011;3986;41.884;23.466;2022-12-07T11:25:21;79.50;;;24.60;;
7881;SDS011;3986;41.884;23.466;2022-12-07T11:28:00;68.33;;;24.97;;
7881;SDS011;3986;41.884;23.466;2022-12-07T11:30:38;86.73;;;23.37;;
7881;SDS011;3986;41.884;23.466;2022-12-07T11:33:14;46.10;;;22.50;;
7881;SDS011;3986;41.884;23.466;2022-12-07T11:35:49;161.93;;;31.80;;
7881;SDS011;3986;41.884;23.466;2022-12-07T11:38:26;70.50;;;39.50;;
7881;SDS011;3986;41.884;23.466;2022-12-07T11:41:03;85.83;;;25.30;;
7881;SDS011;3986;41.884;23.466;2022-12-07T11:43:41;68.47;;;31.77;;
7881;SDS011;3986;41.884;23.466;2022-12-07T11:46:19;54.77;;;24.37;;
7881;SDS011;3986;41.884;23.466;2022-12-07T11:48:52;35.97;;;22.23;;
7881;SDS011;3986;41.884;23.466;2022-12-07T11:51:25;40.77;;;19.90;;
7881;SDS011;3986;41.884;23.466;2022-12-07T11:53:56;76.60;;;21.70;;
7881;SDS011;3986;41.884;23.466;2022-12-07T11:56:28;61.40;;;21.47;;
7881;SDS011;3986;41.884;23.466;2022-12-07T11:59:02;133.13;;;24.30;;
7881;SDS011;3986;41.884;23.466;2022-12-07T12:01:41;49.63;;;17.67;;
7881;SDS011;3986;41.884;23.466;2022-12-07T12:04:19;51.07;;;19.37;;
7881;SDS011;3986;41.884;23.466;2022-12-07T12:06:53;44.67;;;23.63;;
7881;SDS011;3986;41.884;23.466;2022-12-07T12:09:23;55.37;;;24.07;;
7881;SDS011;3986;41.884;23.466;2022-12-07T12:14:55;72.83;;;25.23;;
7881;SDS011;3986;41.884;23.466;2022-12-07T12:17:44;55.13;;;24.00;;
7881;SDS011;3986;41.884;23.466;2022-12-07T12:20:22;45.63;;;20.37;;
7881;SDS011;3986;41.884;23.466;2022-12-07T12:22:53;32.53;;;20.20;;
7881;SDS011;3986;41.884;23.466;2022-12-07T12:25:25;50.60;;;21.90;;
7881;SDS011;3986;41.884;23.466;2022-12-07T12:27:55;55.80;;;24.47;;
7881;SDS011;3986;41.884;23.466;2022-12-07T12:30:26;43.30;;;24.43;;
7881;SDS011;3986;41.884;23.466;2022-12-07T12:33:01;54.13;;;24.57;;
7881;SDS011;3986;41.884;23.466;2022-12-07T12:35:30;85.93;;;29.17;;
7881;SDS011;3986;41.884;23.466;2022-12-07T12:40:54;44.90;;;27.57;;
7881;SDS011;3986;41.884;23.466;2022-12-07T12:55:15;59.17;;;19.33;;
7881;SDS011;3986;41.884;23.466;2022-12-07T12:57:47;37.47;;;20.20;;
7881;SDS011;3986;41.884;23.466;2022-12-07T13:00:40;54.17;;;22.60;;
7881;SDS011;3986;41.884;23.466;2022-12-07T13:03:16;45.60;;;22.00;;
7881;SDS011;3986;41.884;23.466;2022-12-07T13:05:48;51.60;;;24.87;;
7881;SDS011;3986;41.884;23.466;2022-12-07T13:08:45;35.90;;;24.67;;
7881;SDS011;3986;41.884;23.466;2022-12-07T13:11:17;48.17;;;25.80;;
7881;SDS011;3986;41.884;23.466;2022-12-07T13:13:47;54.57;;;30.10;;
7881;SDS011;3986;41.884;23.466;2022-12-07T13:16:37;91.27;;;32.53;;
7881;SDS011;3986;41.884;23.466;2022-12-07T13:25:29;126.87;;;31.53;;
7881;SDS011;3986;41.884;23.466;2022-12-07T13:28:01;29.47;;;18.83;;
7881;SDS011;3986;41.884;23.466;2022-12-07T13:30:35;34.67;;;17.93;;
7881;SDS011;3986;41.884;23.466;2022-12-07T13:33:12;64.20;;;23.53;;
7881;SDS011;3986;41.884;23.466;2022-12-07T13:35:39;39.07;;;19.93;;
7881;SDS011;3986;41.884;23.466;2022-12-07T13:38:15;46.47;;;22.17;;
7881;SDS011;3986;41.884;23.466;2022-12-07T13:40:59;97.57;;;24.70;;
7881;SDS011;3986;41.884;23.466;2022-12-07T13:43:30;32.60;;;20.93;;
7881;SDS011;3986;41.884;23.466;2022-12-07T13:45:58;34.33;;;18.33;;
7881;SDS011;3986;41.884;23.466;2022-12-07T13:48:28;52.30;;;20.90;;
7881;SDS011;3986;41.884;23.466;2022-12-07T13:50:59;51.53;;;18.90;;
7881;SDS011;3986;41.884;23.466;2022-12-07T13:53:27;29.57;;;20.37;;
7881;SDS011;3986;41.884;23.466;2022-12-07T13:55:55;43.93;;;32.27;;
7881;SDS011;3986;41.884;23.466;2022-12-07T13:58:23;79.63;;;36.03;;
7881;SDS011;3986;41.884;23.466;2022-12-07T14:00:50;65.90;;;34.70;;
7881;SDS011;3986;41.884;23.466;2022-12-07T14:03:30;61.07;;;35.63;;
7881;SDS011;3986;41.884;23.466;2022-12-07T14:06:13;63.43;;;26.13;;
7881;SDS011;3986;41.884;23.466;2022-12-07T14:08:46;56.77;;;22.97;;
7881;SDS011;3986;41.884;23.466;2022-12-07T14:11:15;44.23;;;24.37;;
7881;SDS011;3986;41.884;23.466;2022-12-07T14:13:50;94.33;;;25.53;;
7881;SDS011;3986;41.884;23.466;2022-12-07T14:16:23;50.43;;;22.47;;
7881;SDS011;3986;41.884;23.466;2022-12-07T14:18:54;55.83;;;23.17;;
7881;SDS011;3986;41.884;23.466;2022-12-07T14:21:22;55.00;;;29.80;;
7881;SDS011;3986;41.884;23.466;2022-12-07T14:24:15;69.03;;;35.33;;
7881;SDS011;3986;41.884;23.466;2022-12-07T14:26:44;57.37;;;35.40;;
7881;SDS011;3986;41.884;23.466;2022-12-07T14:31:58;87.27;;;40.87;;
7881;SDS011;3986;41.884;23.466;2022-12-07T14:34:54;64.63;;;37.77;;
7881;SDS011;3986;41.884;23.466;2022-12-07T14:37:21;67.57;;;39.97;;
7881;SDS011;3986;41.884;23.466;2022-12-07T14:39:48;61.00;;;40.73;;
7881;SDS011;3986;41.884;23.466;2022-12-07T14:42:15;81.23;;;49.10;;
7881;SDS011;3986;41.884;23.466;2022-12-07T14:44:42;87.93;;;47.50;;
7881;SDS011;3986;41.884;23.466;2022-12-07T14:47:09;74.63;;;53.60;;
7881;SDS011;3986;41.884;23.466;2022-12-07T14:49:36;173.10;;;136.03;;
7881;SDS011;3986;41.884;23.466;2022-12-07T14:52:04;179.10;;;137.47;;
7881;SDS011;3986;41.884;23.466;2022-12-07T14:54:35;211.07;;;154.57;;
7881;SDS011;3986;41.884;23.466;2022-12-07T14:57:02;117.60;;;89.20;;
7881;SDS011;3986;41.884;23.466;2022-12-07T14:59:29;139.73;;;107.03;;
7881;SDS011;3986;41.884;23.466;2022-12-07T15:01:56;184.40;;;133.77;;
7881;SDS011;3986;41.884;23.466;2022-12-07T15:04:23;195.30;;;137.17;;
7881;SDS011;3986;41.884;23.466;2022-12-07T15:06:57;244.23;;;147.47;;
7881;SDS011;3986;41.884;23.466;2022-12-07T15:09:26;246.33;;;183.83;;
7881;SDS011;3986;41.884;23.466;2022-12-07T15:11:52;272.97;;;209.37;;
7881;SDS011;3986;41.884;23.466;2022-12-07T15:14:19;298.07;;;232.00;;
7881;SDS011;3986;41.884;23.466;2022-12-07T15:16:46;301.43;;;238.60;;
7881;SDS011;3986;41.884;23.466;2022-12-07T15:19:14;337.13;;;236.20;;
7881;SDS011;3986;41.884;23.466;2022-12-07T15:21:42;301.50;;;225.03;;
7881;SDS011;3986;41.884;23.466;2022-12-07T15:24:09;215.97;;;179.87;;